createdAt,value
2018-09-05T00:02:00.328Z,57.70
2018-09-05T00:04:27.842Z,58.10
2018-09-05T00:06:55.412Z,57.10
2018-09-05T00:09:22.912Z,58.90
2018-09-05T00:11:50.402Z,58.00
2018-09-05T00:14:17.950Z,55.90
2018-09-05T00:16:45.431Z,59.00
2018-09-05T00:19:12.960Z,59.50
2018-09-05T00:21:40.483Z,59.20
2018-09-05T00:24:08.036Z,58.90
2018-09-05T00:26:35.558Z,58.60
2018-09-05T00:29:03.128Z,58.30
2018-09-05T00:31:31.174Z,57.10
2018-09-05T00:33:58.796Z,56.70
2018-09-05T00:36:26.348Z,58.30
2018-09-05T00:38:53.975Z,58.90
2018-09-05T00:41:21.571Z,58.60
2018-09-05T00:43:49.192Z,57.80
2018-09-05T00:46:16.674Z,58.10
2018-09-05T00:48:44.248Z,58.40
2018-09-05T00:51:11.723Z,57.80
2018-09-05T00:53:39.275Z,58.60
2018-09-05T00:56:06.839Z,58.50
2018-09-05T00:58:34.419Z,57.30
2018-09-05T01:01:02.808Z,59.50
2018-09-05T01:03:30.690Z,57.70
2018-09-05T01:05:58.618Z,60.10
2018-09-05T01:08:27.239Z,61.00
2018-09-05T01:10:54.796Z,60.50
2018-09-05T01:13:22.333Z,60.00
2018-09-05T01:15:49.909Z,59.50
2018-09-05T01:18:17.452Z,59.20
2018-09-05T01:20:45.039Z,58.90
2018-09-05T01:23:12.507Z,58.90
2018-09-05T01:25:40.061Z,58.70
2018-09-05T01:28:07.918Z,58.60
2018-09-05T01:30:35.444Z,58.60
2018-09-05T01:33:03.032Z,58.70
2018-09-05T01:35:30.660Z,57.70
2018-09-05T01:37:58.457Z,57.30
2018-09-05T01:40:26.032Z,59.90
2018-09-05T01:42:53.565Z,62.40
2018-09-05T01:45:21.109Z,61.00
2018-09-05T01:47:48.779Z,59.00
2018-09-05T01:50:16.267Z,60.40
2018-09-05T01:52:43.817Z,59.60
2018-09-05T01:55:11.335Z,61.50
2018-09-05T01:57:39.119Z,60.70
2018-09-05T02:00:11.278Z,60.00
2018-09-05T02:02:38.892Z,60.50
2018-09-05T02:05:06.424Z,59.50
2018-09-05T02:07:33.980Z,59.20
2018-09-05T02:10:01.446Z,60.00
2018-09-05T02:12:29.188Z,60.20
2018-09-05T02:14:59.398Z,59.50
2018-09-05T02:17:26.996Z,60.00
2018-09-05T02:19:54.540Z,59.70
2018-09-05T02:22:22.048Z,59.70
2018-09-05T02:24:49.633Z,59.60
2018-09-05T02:27:17.134Z,59.40
2018-09-05T02:29:47.717Z,59.30
2018-09-05T02:32:15.204Z,58.50
2018-09-05T02:34:42.732Z,58.60
2018-09-05T02:37:10.277Z,59.30
2018-09-05T02:39:37.774Z,59.20
2018-09-05T02:42:05.437Z,59.30
2018-09-05T02:44:33.793Z,59.10
2018-09-05T02:47:01.643Z,59.20
2018-09-05T02:49:29.244Z,59.20
2018-09-05T02:51:56.715Z,59.10
2018-09-05T02:54:24.338Z,59.10
2018-09-05T02:56:51.912Z,59.00
2018-09-05T02:59:19.515Z,58.70
2018-09-05T03:01:46.984Z,56.50
2018-09-05T03:04:14.497Z,58.60
2018-09-05T03:06:42.153Z,60.80
2018-09-05T03:09:09.766Z,63.40
2018-09-05T03:11:37.398Z,62.90
2018-09-05T03:14:05.043Z,64.60
2018-09-05T03:16:32.709Z,64.90
2018-09-05T03:19:00.254Z,65.90
2018-09-05T03:21:27.923Z,66.70
2018-09-05T03:23:55.504Z,65.20
2018-09-05T03:26:23.097Z,63.50
2018-09-05T03:28:50.656Z,62.60
2018-09-05T03:31:18.358Z,61.50
2018-09-05T03:33:45.900Z,60.50
2018-09-05T03:36:13.495Z,61.00
2018-09-05T03:38:41.118Z,61.30
2018-09-05T03:41:08.647Z,60.90
2018-09-05T03:43:36.211Z,59.60
2018-09-05T03:46:04.192Z,59.90
2018-09-05T03:48:31.695Z,60.00
2018-09-05T03:50:59.329Z,62.00
2018-09-05T03:53:27.463Z,59.80
2018-09-05T03:55:55.604Z,61.50
2018-09-05T03:58:23.484Z,63.30
2018-09-05T04:00:51.207Z,62.70
2018-09-05T04:03:19.768Z,62.20
2018-09-05T04:05:47.477Z,61.60
2018-09-05T04:08:15.100Z,61.20
2018-09-05T04:10:42.639Z,60.90
2018-09-05T04:13:10.180Z,60.30
2018-09-05T04:15:37.799Z,60.10
2018-09-05T04:18:05.330Z,60.30
2018-09-05T04:20:32.855Z,60.00
2018-09-05T04:23:00.355Z,60.00
2018-09-05T04:25:28.022Z,60.20
2018-09-05T04:27:55.551Z,60.20
2018-09-05T04:30:23.177Z,60.00
2018-09-05T04:32:52.183Z,59.60
2018-09-05T04:35:19.891Z,58.60
2018-09-05T04:37:47.623Z,59.90
2018-09-05T04:40:15.241Z,60.30
2018-09-05T04:42:42.936Z,60.60
2018-09-05T04:45:10.712Z,59.90
2018-09-05T04:47:38.205Z,60.10
2018-09-05T04:50:05.936Z,60.20
2018-09-05T04:52:33.464Z,60.00
2018-09-05T04:55:01.111Z,60.00
2018-09-05T04:57:28.612Z,59.80
2018-09-05T04:59:56.200Z,59.20
2018-09-05T05:02:23.860Z,57.90
2018-09-05T05:04:51.565Z,58.10
2018-09-05T05:07:19.185Z,60.00
2018-09-05T05:09:46.835Z,60.80
2018-09-05T05:12:14.414Z,60.40
2018-09-05T05:14:42.057Z,60.10
2018-09-05T05:17:09.731Z,59.90
2018-09-05T05:19:37.376Z,59.60
2018-09-05T05:22:04.964Z,59.20
2018-09-05T05:24:32.461Z,59.20
2018-09-05T05:27:00.023Z,59.40
2018-09-05T05:29:27.539Z,59.40
2018-09-05T05:31:55.263Z,59.20
2018-09-05T05:34:22.920Z,59.20
2018-09-05T05:36:50.460Z,59.00
2018-09-05T05:39:18.084Z,59.00
2018-09-05T05:41:45.676Z,58.20
2018-09-05T05:44:13.307Z,58.30
2018-09-05T05:46:40.895Z,59.00
2018-09-05T05:49:08.444Z,60.10
2018-09-05T05:51:36.016Z,59.30
2018-09-05T05:54:03.579Z,58.90
2018-09-05T05:56:31.063Z,58.90
2018-09-05T05:58:58.580Z,58.70
2018-09-05T06:01:26.215Z,58.70
2018-09-05T06:03:53.836Z,58.30
2018-09-05T06:06:21.665Z,58.20
2018-09-05T06:08:49.012Z,58.00
2018-09-05T06:11:16.756Z,58.00
2018-09-05T06:13:44.384Z,57.80
2018-09-05T06:16:11.881Z,57.70
2018-09-05T06:18:40.425Z,57.50
2018-09-05T06:21:08.126Z,57.40
2018-09-05T06:23:35.712Z,57.30
2018-09-05T06:26:03.344Z,57.20
2018-09-05T06:28:30.853Z,57.10
2018-09-05T06:30:58.427Z,57.00
2018-09-05T06:33:25.844Z,56.90
2018-09-05T06:35:53.432Z,56.80
2018-09-05T06:38:21.063Z,56.70
2018-09-05T06:40:48.616Z,56.40
2018-09-05T06:43:16.136Z,56.30
2018-09-05T06:45:43.920Z,56.20
2018-09-05T06:48:11.511Z,56.20
2018-09-05T06:50:38.987Z,56.00
2018-09-05T06:53:06.492Z,56.00
2018-09-05T06:55:34.065Z,55.80
2018-09-05T06:58:01.788Z,55.80
2018-09-05T07:00:29.355Z,55.60
2018-09-05T07:02:57.048Z,55.40
2018-09-05T07:05:24.639Z,55.30
2018-09-05T07:07:52.237Z,55.30
2018-09-05T07:10:19.885Z,55.10
2018-09-05T07:12:47.524Z,55.10
2018-09-05T07:15:15.027Z,55.00
2018-09-05T07:17:42.657Z,54.90
2018-09-05T07:20:10.268Z,54.80
2018-09-05T07:22:38.763Z,54.60
2018-09-05T07:25:07.040Z,54.30
2018-09-05T07:27:35.159Z,54.30
2018-09-05T07:30:02.921Z,54.30
2018-09-05T07:32:30.576Z,54.10
2018-09-05T07:34:58.070Z,54.00
2018-09-05T07:37:25.856Z,53.50
2018-09-05T07:39:53.380Z,53.40
2018-09-05T07:42:20.931Z,53.00
2018-09-05T07:44:48.469Z,52.50
2018-09-05T07:47:16.265Z,52.40
2018-09-05T07:49:43.752Z,52.00
2018-09-05T07:52:11.339Z,52.00
2018-09-05T07:54:38.818Z,51.70
2018-09-05T07:57:06.340Z,51.20
2018-09-05T07:59:34.033Z,50.80
2018-09-05T08:02:01.747Z,50.90
2018-09-05T08:04:30.820Z,50.60
2018-09-05T08:07:00.980Z,50.40
2018-09-05T08:09:28.740Z,50.10
2018-09-05T08:11:56.384Z,50.00
2018-09-05T08:14:24.122Z,50.50
2018-09-05T08:16:51.750Z,49.70
2018-09-05T08:19:19.695Z,49.60
2018-09-05T08:21:47.184Z,49.70
2018-09-05T08:24:14.789Z,50.20
2018-09-05T08:26:42.337Z,49.60
2018-09-05T08:29:09.863Z,49.10
2018-09-05T08:31:37.455Z,48.50
2018-09-05T08:34:04.983Z,48.60
2018-09-05T08:36:32.784Z,47.50
2018-09-05T08:39:00.270Z,47.40
2018-09-05T08:41:27.743Z,46.70
2018-09-05T08:43:55.506Z,47.20
2018-09-05T08:46:23.043Z,47.70
2018-09-05T08:48:50.572Z,47.00
2018-09-05T08:51:19.219Z,47.40
2018-09-05T08:53:48.001Z,47.60
2018-09-05T08:56:15.566Z,47.20
2018-09-05T08:58:43.329Z,47.40
2018-09-05T09:01:10.829Z,47.20
2018-09-05T09:03:38.495Z,46.30
2018-09-05T09:06:06.429Z,45.10
2018-09-05T09:08:34.156Z,44.40
2018-09-05T09:11:01.641Z,43.90
2018-09-05T09:13:32.224Z,43.20
2018-09-05T09:15:59.756Z,43.30
2018-09-05T09:18:27.386Z,43.70
2018-09-05T09:20:54.962Z,44.00
2018-09-05T09:23:22.548Z,43.80
2018-09-05T09:25:50.096Z,43.70
2018-09-05T09:28:17.865Z,43.30
2018-09-05T09:30:45.353Z,42.30
2018-09-05T09:33:12.989Z,41.90
2018-09-05T09:35:40.512Z,43.00
2018-09-05T09:38:08.064Z,42.80
2018-09-05T09:40:35.671Z,41.30
2018-09-05T09:43:03.260Z,41.20
2018-09-05T09:45:31.008Z,41.40
2018-09-05T09:47:59.162Z,40.20
2018-09-05T09:50:26.701Z,40.40
2018-09-05T09:52:54.292Z,40.80
2018-09-05T09:55:21.945Z,40.60
2018-09-05T09:57:49.661Z,39.90
2018-09-05T10:00:22.899Z,39.20
2018-09-05T10:02:57.057Z,38.80
2018-09-05T10:05:30.570Z,39.60
2018-09-05T10:08:03.748Z,40.10
2018-09-05T10:10:37.094Z,40.40
2018-09-05T10:13:10.313Z,40.90
2018-09-05T10:15:43.510Z,39.70
2018-09-05T10:18:16.707Z,40.00
2018-09-05T10:20:44.346Z,39.40
2018-09-05T10:23:11.979Z,39.70
2018-09-05T10:25:39.503Z,38.10
2018-09-05T10:28:07.137Z,37.00
2018-09-05T10:30:35.572Z,37.00
2018-09-05T10:33:05.224Z,36.70
2018-09-05T10:35:32.746Z,36.70
2018-09-05T10:38:00.291Z,36.90
2018-09-05T10:40:27.869Z,36.00
2018-09-05T10:42:55.528Z,35.10
2018-09-05T10:45:23.180Z,35.60
2018-09-05T10:47:50.696Z,35.70
2018-09-05T10:50:18.285Z,36.90
2018-09-05T10:52:45.876Z,37.20
2018-09-05T10:55:13.733Z,36.60
2018-09-05T10:57:41.689Z,35.20
2018-09-05T11:00:09.245Z,34.90
2018-09-05T11:02:36.937Z,34.90
2018-09-05T11:05:04.498Z,34.60
2018-09-05T11:07:32.137Z,34.40
2018-09-05T11:09:59.617Z,33.70
2018-09-05T11:12:27.160Z,33.20
2018-09-05T11:14:54.691Z,32.80
2018-09-05T11:17:22.211Z,32.40
2018-09-05T11:19:49.800Z,33.10
2018-09-05T11:22:17.359Z,32.80
2018-09-05T11:24:45.061Z,33.10
2018-09-05T11:27:12.698Z,33.50
2018-09-05T11:29:40.285Z,33.80
2018-09-05T11:32:07.911Z,34.70
2018-09-05T11:34:35.443Z,34.10
2018-09-05T11:37:03.029Z,33.30
2018-09-05T11:39:30.516Z,33.60
2018-09-05T11:41:58.045Z,34.60
2018-09-05T11:44:25.647Z,34.60
2018-09-05T11:46:53.192Z,34.80
2018-09-05T11:49:20.761Z,33.70
2018-09-05T11:51:49.206Z,33.70
2018-09-05T11:54:16.857Z,33.90
2018-09-05T11:56:44.446Z,32.40
2018-09-05T11:59:11.936Z,31.10
2018-09-05T12:01:40.676Z,32.10
2018-09-05T12:04:08.560Z,32.60
2018-09-05T12:06:36.625Z,32.60
2018-09-05T12:09:07.733Z,33.50
2018-09-05T12:11:38.092Z,34.60
2018-09-05T12:14:05.864Z,35.40
2018-09-05T12:16:35.248Z,37.40
2018-09-05T12:19:03.216Z,38.20
2018-09-05T12:21:30.779Z,40.30
2018-09-05T12:23:58.546Z,41.40
2018-09-05T12:26:26.091Z,40.70
2018-09-05T12:28:53.653Z,42.10
2018-09-05T12:31:21.444Z,40.70
2018-09-05T12:33:49.113Z,41.90
2018-09-05T12:36:16.798Z,42.10
2018-09-05T12:38:44.356Z,43.20
2018-09-05T12:41:11.935Z,44.30
2018-09-05T12:43:39.516Z,42.30
2018-09-05T12:46:07.155Z,45.10
2018-09-05T12:48:34.664Z,45.40
2018-09-05T12:51:02.365Z,44.20
2018-09-05T12:53:29.994Z,43.40
2018-09-05T12:55:57.597Z,42.50
2018-09-05T12:58:25.208Z,43.50
2018-09-05T13:00:52.791Z,42.60
2018-09-05T13:03:20.291Z,42.10
2018-09-05T13:05:50.064Z,41.70
2018-09-05T13:08:17.656Z,43.60
2018-09-05T13:10:45.333Z,41.20
2018-09-05T13:13:12.950Z,42.80
2018-09-05T13:15:40.522Z,40.80
2018-09-05T13:18:08.205Z,43.00
2018-09-05T13:20:35.777Z,38.20
2018-09-05T13:23:03.366Z,38.20
2018-09-05T13:25:30.876Z,37.20
2018-09-05T13:27:58.395Z,38.50
2018-09-05T13:30:25.936Z,39.50
2018-09-05T13:32:53.591Z,42.90
2018-09-05T13:35:21.216Z,42.80
2018-09-05T13:37:49.865Z,40.10
2018-09-05T13:40:17.537Z,38.90
2018-09-05T13:42:45.095Z,42.00
2018-09-05T13:45:12.698Z,42.60
2018-09-05T13:47:40.097Z,43.20
2018-09-05T13:50:07.649Z,40.30
2018-09-05T13:52:35.135Z,38.70
2018-09-05T13:55:02.695Z,39.00
2018-09-05T13:57:30.239Z,39.50
2018-09-05T13:59:57.855Z,41.30
2018-09-05T14:02:25.360Z,39.90
2018-09-05T14:04:52.872Z,40.10
2018-09-05T14:07:20.328Z,39.10
2018-09-05T14:09:47.837Z,38.70
2018-09-05T14:12:15.616Z,37.20
2018-09-05T14:14:43.248Z,34.80
2018-09-05T14:17:10.748Z,34.50
2018-09-05T14:19:38.326Z,35.10
2018-09-05T14:22:05.978Z,37.00
2018-09-05T14:24:33.764Z,36.10
2018-09-05T14:27:01.387Z,38.90
2018-09-05T14:29:29.007Z,39.20
2018-09-05T14:31:56.544Z,38.90
2018-09-05T14:34:24.167Z,38.90
2018-09-05T14:36:51.851Z,39.00
2018-09-05T14:39:19.407Z,37.60
2018-09-05T14:41:46.937Z,38.00
2018-09-05T14:44:14.749Z,35.40
2018-09-05T14:46:42.304Z,35.60
2018-09-05T14:49:09.860Z,33.80
2018-09-05T14:51:37.417Z,33.80
2018-09-05T14:54:04.962Z,34.50
2018-09-05T14:56:32.572Z,33.50
2018-09-05T14:59:00.154Z,33.30
2018-09-05T15:01:27.684Z,33.30
2018-09-05T15:03:55.315Z,34.40
2018-09-05T15:06:22.870Z,33.30
2018-09-05T15:08:50.352Z,34.70
2018-09-05T15:11:17.885Z,34.20
2018-09-05T15:13:45.653Z,36.30
2018-09-05T15:16:13.162Z,35.30
2018-09-05T15:18:40.678Z,36.60
2018-09-05T15:21:08.431Z,36.20
2018-09-05T15:23:36.008Z,36.90
2018-09-05T15:26:04.775Z,39.00
2018-09-05T15:28:32.255Z,40.10
2018-09-05T15:30:59.840Z,40.40
2018-09-05T15:33:27.367Z,39.20
2018-09-05T15:35:54.871Z,39.10
2018-09-05T15:38:22.517Z,38.60
2018-09-05T15:40:50.062Z,39.60
2018-09-05T15:43:17.516Z,40.70
2018-09-05T15:45:45.003Z,42.20
2018-09-05T15:48:12.532Z,41.50
2018-09-05T15:50:40.039Z,41.40
2018-09-05T15:53:07.669Z,40.80
2018-09-05T15:55:35.431Z,38.90
2018-09-05T15:58:04.930Z,38.80
2018-09-05T16:00:32.477Z,38.20
2018-09-05T16:03:00.033Z,38.60
2018-09-05T16:05:27.693Z,40.00
2018-09-05T16:07:55.191Z,39.90
2018-09-05T16:10:22.793Z,40.50
2018-09-05T16:12:50.373Z,39.80
2018-09-05T16:15:17.896Z,41.50
2018-09-05T16:17:45.368Z,40.10
2018-09-05T16:20:12.922Z,41.00
2018-09-05T16:22:40.574Z,41.30
2018-09-05T16:25:08.134Z,42.30
2018-09-05T16:27:35.782Z,41.40
2018-09-05T16:30:03.687Z,41.50
2018-09-05T16:32:31.203Z,41.80
2018-09-05T16:34:58.695Z,42.50
2018-09-05T16:37:26.192Z,42.00
2018-09-05T16:39:53.705Z,42.10
2018-09-05T16:42:21.379Z,41.80
2018-09-05T16:44:51.894Z,41.80
2018-09-05T16:47:19.428Z,43.10
2018-09-05T16:49:47.244Z,42.20
2018-09-05T16:52:14.856Z,42.30
2018-09-05T16:54:42.405Z,43.50
2018-09-05T16:57:10.464Z,44.80
2018-09-05T16:59:38.268Z,43.50
2018-09-05T17:02:06.012Z,43.40
2018-09-05T17:04:33.604Z,44.00
2018-09-05T17:07:01.117Z,44.60
2018-09-05T17:09:28.683Z,44.90
2018-09-05T17:11:56.230Z,44.60
2018-09-05T17:14:23.812Z,44.40
2018-09-05T17:16:51.328Z,44.20
2018-09-05T17:19:18.912Z,44.40
2018-09-05T17:21:46.603Z,45.50
2018-09-05T17:24:14.115Z,46.40
2018-09-05T17:26:41.645Z,45.90
2018-09-05T17:29:09.182Z,46.50
2018-09-05T17:31:36.853Z,46.10
2018-09-05T17:34:05.838Z,46.40
2018-09-05T17:36:33.372Z,46.90
2018-09-05T17:39:02.671Z,47.30
2018-09-05T17:41:30.215Z,48.10
2018-09-05T17:43:57.711Z,47.50
2018-09-05T17:46:25.245Z,48.10
2018-09-05T17:48:52.745Z,47.80
2018-09-05T17:51:20.506Z,48.80
2018-09-05T17:53:48.004Z,49.00
2018-09-05T17:56:15.597Z,49.20
2018-09-05T17:58:43.190Z,50.10
2018-09-05T18:01:14.032Z,50.40
2018-09-05T18:03:41.531Z,50.40
2018-09-05T18:06:09.333Z,49.80
2018-09-05T18:08:36.860Z,51.40
2018-09-05T18:11:04.562Z,51.50
2018-09-05T18:13:32.324Z,52.30
2018-09-05T18:15:59.928Z,51.90
2018-09-05T18:18:27.528Z,51.70
2018-09-05T18:20:55.179Z,50.40
2018-09-05T18:23:24.265Z,50.10
2018-09-05T18:25:51.888Z,51.60
2018-09-05T18:28:19.815Z,51.90
2018-09-05T18:30:47.325Z,51.20
2018-09-05T18:33:15.040Z,52.00
2018-09-05T18:35:42.597Z,52.10
2018-09-05T18:38:10.649Z,52.10
2018-09-05T18:40:38.199Z,52.30
2018-09-05T18:43:06.819Z,52.40
2018-09-05T18:45:34.315Z,52.40
2018-09-05T18:48:01.843Z,52.90
2018-09-05T18:50:29.363Z,52.50
2018-09-05T18:53:02.356Z,52.60
2018-09-05T18:55:30.007Z,52.60
2018-09-05T18:57:57.535Z,52.60
2018-09-05T19:00:25.274Z,52.80
2018-09-05T19:02:52.855Z,51.40
2018-09-05T19:05:20.411Z,52.80
2018-09-05T19:07:47.971Z,52.80
2018-09-05T19:10:15.585Z,53.00
2018-09-05T19:12:43.232Z,52.90
2018-09-05T19:15:10.910Z,52.50
2018-09-05T19:17:38.461Z,52.40
2018-09-05T19:20:06.135Z,50.00
2018-09-05T19:22:33.831Z,49.70
2018-09-05T19:25:01.457Z,49.40
2018-09-05T19:27:29.072Z,49.30
2018-09-05T19:29:56.591Z,49.80
2018-09-05T19:32:24.372Z,51.00
2018-09-05T19:34:52.031Z,52.70
2018-09-05T19:37:19.651Z,53.00
2018-09-05T19:39:47.277Z,53.20
2018-09-05T19:42:15.003Z,53.00
2018-09-05T19:44:42.596Z,53.00
2018-09-05T19:47:10.269Z,53.10
2018-09-05T19:49:37.918Z,51.60
2018-09-05T19:52:05.747Z,50.80
2018-09-05T19:54:33.356Z,51.20
2018-09-05T19:57:00.859Z,52.10
2018-09-05T19:59:28.514Z,53.50
2018-09-05T20:01:56.117Z,53.30
2018-09-05T20:04:24.186Z,50.80
2018-09-05T20:06:53.929Z,52.90
2018-09-05T20:09:21.570Z,53.00
2018-09-05T20:11:49.591Z,51.10
2018-09-05T20:14:17.223Z,51.60
2018-09-05T20:16:44.864Z,52.50
2018-09-05T20:19:12.538Z,54.40
2018-09-05T20:21:40.117Z,54.30
2018-09-05T20:24:07.684Z,52.00
2018-09-05T20:26:35.205Z,54.30
2018-09-05T20:29:02.796Z,53.20
2018-09-05T20:31:30.313Z,54.60
2018-09-05T20:33:58.011Z,53.20
2018-09-05T20:36:25.562Z,51.80
2018-09-05T20:38:53.075Z,54.60
2018-09-05T20:41:20.686Z,52.80
2018-09-05T20:43:48.308Z,52.90
2018-09-05T20:46:15.835Z,53.60
2018-09-05T20:48:43.502Z,54.60
2018-09-05T20:51:11.326Z,54.70
2018-09-05T20:53:39.002Z,52.20
2018-09-05T20:56:07.310Z,54.80
2018-09-05T20:58:34.976Z,54.00
2018-09-05T21:01:02.664Z,53.30
2018-09-05T21:03:30.356Z,52.90
2018-09-05T21:05:57.936Z,55.70
2018-09-05T21:08:25.535Z,55.20
2018-09-05T21:10:53.159Z,55.10
2018-09-05T21:13:20.936Z,53.30
2018-09-05T21:15:48.507Z,55.70
2018-09-05T21:18:16.050Z,53.20
2018-09-05T21:20:43.540Z,55.80
2018-09-05T21:23:11.192Z,53.80
2018-09-05T21:25:38.724Z,54.80
2018-09-05T21:28:06.442Z,56.60
2018-09-05T21:30:33.982Z,56.20
2018-09-05T21:33:01.916Z,56.00
2018-09-05T21:35:29.420Z,56.10
2018-09-05T21:37:56.987Z,54.10
2018-09-05T21:40:24.484Z,56.00
2018-09-05T21:42:52.060Z,54.40
2018-09-05T21:45:19.790Z,54.00
2018-09-05T21:47:47.444Z,54.30
2018-09-05T21:50:15.261Z,54.00
2018-09-05T21:52:42.974Z,56.00
2018-09-05T21:55:10.667Z,54.20
2018-09-05T21:57:38.339Z,54.70
2018-09-05T22:00:07.592Z,55.90
2018-09-05T22:02:35.272Z,55.40
2018-09-05T22:05:02.979Z,56.30
2018-09-05T22:07:30.599Z,55.80
2018-09-05T22:09:58.176Z,56.30
2018-09-05T22:12:25.710Z,57.80
2018-09-05T22:14:53.247Z,57.30
2018-09-05T22:17:20.895Z,58.50
2018-09-05T22:19:48.704Z,57.90
2018-09-05T22:22:16.235Z,55.70
2018-09-05T22:24:43.907Z,55.90
2018-09-05T22:27:12.877Z,56.80
2018-09-05T22:29:40.410Z,57.00
2018-09-05T22:32:08.195Z,56.50
2018-09-05T22:34:35.695Z,56.40
2018-09-05T22:37:06.768Z,56.20
2018-09-05T22:39:37.246Z,56.00
2018-09-05T22:42:04.866Z,55.90
2018-09-05T22:44:43.893Z,55.90
2018-09-05T22:47:22.944Z,55.90
2018-09-05T22:51:07.848Z,55.80
2018-09-05T22:55:00.164Z,55.90
2018-09-05T22:57:45.091Z,55.80
2018-09-05T23:00:26.161Z,55.90
2018-09-05T23:06:11.526Z,55.90
2018-09-05T23:08:41.288Z,55.90
2018-09-05T23:11:20.779Z,56.00
2018-09-05T23:13:59.973Z,56.00
2018-09-05T23:16:39.529Z,55.20
2018-09-05T23:19:32.132Z,56.20
2018-09-05T23:21:59.916Z,55.60
2018-09-05T23:24:27.514Z,56.40
2018-09-05T23:26:55.125Z,55.00
2018-09-05T23:29:22.647Z,57.60
2018-09-05T23:31:50.227Z,56.60
2018-09-05T23:34:17.971Z,57.60
2018-09-05T23:36:45.510Z,57.00
2018-09-05T23:39:14.132Z,56.80
2018-09-05T23:41:41.825Z,56.40
2018-09-05T23:44:09.321Z,56.30
2018-09-05T23:46:36.821Z,55.70
2018-09-05T23:49:04.500Z,57.30
2018-09-05T23:51:32.009Z,56.50
2018-09-05T23:53:59.533Z,56.40
2018-09-05T23:56:27.189Z,56.30
2018-09-05T23:58:54.878Z,56.30
